sensor_id;sensor_type;location;lat;lon;timestamp;P1;durP1;ratioP1;P2;durP2;ratioP2
43086;SDS011;28708;52.224;6.924;2024-03-23T00:53:17;13.53;;;4.17;;
43086;SDS011;28708;52.224;6.924;2024-03-23T00:55:42;9.20;;;3.93;;
43086;SDS011;28708;52.224;6.924;2024-03-23T00:58:08;18.90;;;4.73;;
43086;SDS011;28708;52.224;6.924;2024-03-23T01:00:34;13.60;;;3.70;;
43086;SDS011;28708;52.224;6.924;2024-03-23T01:03:00;15.97;;;5.30;;
43086;SDS011;28708;52.224;6.924;2024-03-23T01:05:26;13.73;;;4.23;;
43086;SDS011;28708;52.224;6.924;2024-03-23T01:07:51;17.73;;;4.03;;
43086;SDS011;28708;52.224;6.924;2024-03-23T01:10:17;8.90;;;3.60;;
43086;SDS011;28708;52.224;6.924;2024-03-23T01:12:43;19.27;;;4.63;;
43086;SDS011;28708;52.224;6.924;2024-03-23T01:15:08;12.43;;;4.10;;
43086;SDS011;28708;52.224;6.924;2024-03-23T01:17:34;18.13;;;3.90;;
43086;SDS011;28708;52.224;6.924;2024-03-23T01:20:00;10.17;;;3.77;;
43086;SDS011;28708;52.224;6.924;2024-03-23T01:22:26;11.07;;;3.83;;
43086;SDS011;28708;52.224;6.924;2024-03-23T01:24:51;14.43;;;3.40;;
43086;SDS011;28708;52.224;6.924;2024-03-23T01:27:17;19.63;;;3.77;;
43086;SDS011;28708;52.224;6.924;2024-03-23T01:29:44;10.93;;;3.60;;
43086;SDS011;28708;52.224;6.924;2024-03-23T01:32:10;17.80;;;4.30;;
43086;SDS011;28708;52.224;6.924;2024-03-23T01:34:35;14.23;;;4.30;;
43086;SDS011;28708;52.224;6.924;2024-03-23T01:37:01;12.57;;;3.47;;
43086;SDS011;28708;52.224;6.924;2024-03-23T01:39:26;12.40;;;4.27;;
43086;SDS011;28708;52.224;6.924;2024-03-23T01:41:52;16.23;;;4.20;;
43086;SDS011;28708;52.224;6.924;2024-03-23T01:44:18;11.20;;;3.80;;
43086;SDS011;28708;52.224;6.924;2024-03-23T01:46:43;16.37;;;4.57;;
43086;SDS011;28708;52.224;6.924;2024-03-23T01:49:09;10.73;;;3.87;;
43086;SDS011;28708;52.224;6.924;2024-03-23T01:51:36;12.23;;;4.27;;
43086;SDS011;28708;52.224;6.924;2024-03-23T01:54:03;16.77;;;4.20;;
43086;SDS011;28708;52.224;6.924;2024-03-23T01:56:33;14.43;;;4.57;;
43086;SDS011;28708;52.224;6.924;2024-03-23T01:59:02;11.43;;;3.67;;
43086;SDS011;28708;52.224;6.924;2024-03-23T02:01:31;14.97;;;4.43;;
43086;SDS011;28708;52.224;6.924;2024-03-23T02:03:57;23.03;;;3.77;;
43086;SDS011;28708;52.224;6.924;2024-03-23T02:06:23;9.60;;;3.17;;
43086;SDS011;28708;52.224;6.924;2024-03-23T02:08:49;12.97;;;3.53;;
43086;SDS011;28708;52.224;6.924;2024-03-23T02:11:15;17.87;;;5.00;;
43086;SDS011;28708;52.224;6.924;2024-03-23T02:13:41;10.53;;;4.50;;
43086;SDS011;28708;52.224;6.924;2024-03-23T02:16:06;17.53;;;4.77;;
43086;SDS011;28708;52.224;6.924;2024-03-23T02:18:32;10.37;;;4.43;;
43086;SDS011;28708;52.224;6.924;2024-03-23T02:20:58;19.90;;;4.03;;
43086;SDS011;28708;52.224;6.924;2024-03-23T02:23:24;18.77;;;4.07;;
43086;SDS011;28708;52.224;6.924;2024-03-23T02:25:50;12.77;;;4.63;;
43086;SDS011;28708;52.224;6.924;2024-03-23T02:28:16;15.53;;;4.27;;
43086;SDS011;28708;52.224;6.924;2024-03-23T02:30:42;10.03;;;3.57;;
43086;SDS011;28708;52.224;6.924;2024-03-23T02:33:08;17.13;;;4.47;;
43086;SDS011;28708;52.224;6.924;2024-03-23T02:35:34;13.80;;;4.20;;
43086;SDS011;28708;52.224;6.924;2024-03-23T02:37:59;9.87;;;3.50;;
43086;SDS011;28708;52.224;6.924;2024-03-23T02:40:25;12.47;;;3.73;;
43086;SDS011;28708;52.224;6.924;2024-03-23T02:42:53;10.93;;;4.03;;
43086;SDS011;28708;52.224;6.924;2024-03-23T02:45:19;10.00;;;3.67;;
43086;SDS011;28708;52.224;6.924;2024-03-23T02:47:44;11.63;;;3.70;;
43086;SDS011;28708;52.224;6.924;2024-03-23T02:50:10;15.07;;;3.60;;
43086;SDS011;28708;52.224;6.924;2024-03-23T02:52:36;18.30;;;3.70;;
43086;SDS011;28708;52.224;6.924;2024-03-23T02:55:02;9.37;;;3.87;;
43086;SDS011;28708;52.224;6.924;2024-03-23T02:57:29;8.73;;;3.37;;
43086;SDS011;28708;52.224;6.924;2024-03-23T02:59:54;9.40;;;3.60;;
43086;SDS011;28708;52.224;6.924;2024-03-23T03:02:20;13.37;;;3.13;;
43086;SDS011;28708;52.224;6.924;2024-03-23T03:04:46;12.00;;;3.90;;
43086;SDS011;28708;52.224;6.924;2024-03-23T03:07:12;8.47;;;4.07;;
43086;SDS011;28708;52.224;6.924;2024-03-23T03:09:38;11.23;;;3.10;;
43086;SDS011;28708;52.224;6.924;2024-03-23T03:12:05;9.87;;;3.33;;
43086;SDS011;28708;52.224;6.924;2024-03-23T03:14:30;15.83;;;4.00;;
43086;SDS011;28708;52.224;6.924;2024-03-23T03:16:56;15.63;;;3.70;;
43086;SDS011;28708;52.224;6.924;2024-03-23T03:19:22;16.50;;;4.17;;
43086;SDS011;28708;52.224;6.924;2024-03-23T03:21:47;10.73;;;3.90;;
43086;SDS011;28708;52.224;6.924;2024-03-23T03:24:13;10.30;;;3.43;;
43086;SDS011;28708;52.224;6.924;2024-03-23T03:26:39;8.17;;;3.40;;
43086;SDS011;28708;52.224;6.924;2024-03-23T03:29:05;10.27;;;3.73;;
43086;SDS011;28708;52.224;6.924;2024-03-23T03:31:30;11.87;;;3.47;;
43086;SDS011;28708;52.224;6.924;2024-03-23T03:33:56;14.57;;;4.43;;
43086;SDS011;28708;52.224;6.924;2024-03-23T03:36:21;16.03;;;4.37;;
43086;SDS011;28708;52.224;6.924;2024-03-23T03:38:47;16.13;;;4.73;;
43086;SDS011;28708;52.224;6.924;2024-03-23T03:41:13;14.27;;;4.10;;
43086;SDS011;28708;52.224;6.924;2024-03-23T03:43:38;11.80;;;4.20;;
43086;SDS011;28708;52.224;6.924;2024-03-23T03:46:04;19.87;;;5.00;;
43086;SDS011;28708;52.224;6.924;2024-03-23T03:48:30;16.17;;;4.90;;
43086;SDS011;28708;52.224;6.924;2024-03-23T03:50:55;11.70;;;4.33;;
43086;SDS011;28708;52.224;6.924;2024-03-23T03:53:21;16.17;;;5.07;;
43086;SDS011;28708;52.224;6.924;2024-03-23T03:55:47;14.80;;;4.17;;
43086;SDS011;28708;52.224;6.924;2024-03-23T03:58:13;15.63;;;4.87;;
43086;SDS011;28708;52.224;6.924;2024-03-23T04:00:39;18.63;;;4.60;;
43086;SDS011;28708;52.224;6.924;2024-03-23T04:03:04;19.13;;;4.47;;
43086;SDS011;28708;52.224;6.924;2024-03-23T04:05:30;11.73;;;5.53;;
43086;SDS011;28708;52.224;6.924;2024-03-23T04:07:56;9.77;;;4.03;;
43086;SDS011;28708;52.224;6.924;2024-03-23T04:10:24;17.33;;;5.27;;
43086;SDS011;28708;52.224;6.924;2024-03-23T04:12:51;10.93;;;4.13;;
43086;SDS011;28708;52.224;6.924;2024-03-23T04:15:18;14.03;;;4.87;;
43086;SDS011;28708;52.224;6.924;2024-03-23T04:17:44;13.23;;;5.37;;
43086;SDS011;28708;52.224;6.924;2024-03-23T04:20:10;14.80;;;5.90;;
43086;SDS011;28708;52.224;6.924;2024-03-23T04:22:38;13.80;;;5.40;;
43086;SDS011;28708;52.224;6.924;2024-03-23T04:25:04;14.37;;;5.27;;
43086;SDS011;28708;52.224;6.924;2024-03-23T04:27:34;13.00;;;4.83;;
43086;SDS011;28708;52.224;6.924;2024-03-23T04:30:00;11.63;;;5.47;;
43086;SDS011;28708;52.224;6.924;2024-03-23T04:32:27;21.13;;;5.53;;
43086;SDS011;28708;52.224;6.924;2024-03-23T04:34:54;23.10;;;6.13;;
43086;SDS011;28708;52.224;6.924;2024-03-23T04:37:22;19.50;;;5.53;;
43086;SDS011;28708;52.224;6.924;2024-03-23T04:39:48;16.47;;;6.67;;
43086;SDS011;28708;52.224;6.924;2024-03-23T04:42:14;14.03;;;6.47;;
43086;SDS011;28708;52.224;6.924;2024-03-23T04:44:41;14.67;;;5.50;;
43086;SDS011;28708;52.224;6.924;2024-03-23T04:47:06;17.37;;;6.17;;
43086;SDS011;28708;52.224;6.924;2024-03-23T04:49:32;16.43;;;5.40;;
43086;SDS011;28708;52.224;6.924;2024-03-23T04:51:58;13.60;;;6.77;;
43086;SDS011;28708;52.224;6.924;2024-03-23T04:54:24;23.90;;;5.93;;
43086;SDS011;28708;52.224;6.924;2024-03-23T04:56:50;13.67;;;5.83;;
43086;SDS011;28708;52.224;6.924;2024-03-23T04:59:16;15.77;;;6.57;;
43086;SDS011;28708;52.224;6.924;2024-03-23T05:01:42;14.57;;;6.03;;
43086;SDS011;28708;52.224;6.924;2024-03-23T05:04:08;16.77;;;6.47;;
43086;SDS011;28708;52.224;6.924;2024-03-23T05:06:34;17.57;;;6.53;;
43086;SDS011;28708;52.224;6.924;2024-03-23T05:08:59;19.73;;;7.07;;
43086;SDS011;28708;52.224;6.924;2024-03-23T05:11:31;27.23;;;7.83;;
43086;SDS011;28708;52.224;6.924;2024-03-23T05:13:57;16.70;;;6.63;;
43086;SDS011;28708;52.224;6.924;2024-03-23T05:16:22;16.40;;;7.40;;
43086;SDS011;28708;52.224;6.924;2024-03-23T05:18:48;16.23;;;7.03;;
43086;SDS011;28708;52.224;6.924;2024-03-23T05:21:14;21.13;;;7.50;;
43086;SDS011;28708;52.224;6.924;2024-03-23T05:23:39;19.33;;;6.50;;
43086;SDS011;28708;52.224;6.924;2024-03-23T05:26:05;19.73;;;7.53;;
43086;SDS011;28708;52.224;6.924;2024-03-23T05:28:31;18.47;;;6.97;;
43086;SDS011;28708;52.224;6.924;2024-03-23T05:30:56;19.37;;;7.70;;
43086;SDS011;28708;52.224;6.924;2024-03-23T05:33:22;19.67;;;7.07;;
43086;SDS011;28708;52.224;6.924;2024-03-23T05:35:56;18.07;;;7.83;;
43086;SDS011;28708;52.224;6.924;2024-03-23T05:38:22;25.77;;;7.17;;
43086;SDS011;28708;52.224;6.924;2024-03-23T05:40:54;21.67;;;7.90;;
43086;SDS011;28708;52.224;6.924;2024-03-23T05:43:20;13.30;;;6.23;;
43086;SDS011;28708;52.224;6.924;2024-03-23T05:45:53;22.40;;;7.30;;
43086;SDS011;28708;52.224;6.924;2024-03-23T05:48:19;22.40;;;7.80;;
43086;SDS011;28708;52.224;6.924;2024-03-23T05:50:45;16.93;;;7.87;;
43086;SDS011;28708;52.224;6.924;2024-03-23T05:53:10;15.77;;;7.10;;
43086;SDS011;28708;52.224;6.924;2024-03-23T05:55:38;15.57;;;7.07;;
43086;SDS011;28708;52.224;6.924;2024-03-23T05:58:03;18.77;;;7.63;;
43086;SDS011;28708;52.224;6.924;2024-03-23T06:00:29;13.57;;;6.47;;
43086;SDS011;28708;52.224;6.924;2024-03-23T06:02:55;18.47;;;8.30;;
43086;SDS011;28708;52.224;6.924;2024-03-23T06:05:20;15.47;;;7.23;;
43086;SDS011;28708;52.224;6.924;2024-03-23T06:07:46;17.20;;;7.27;;
43086;SDS011;28708;52.224;6.924;2024-03-23T06:10:11;17.73;;;7.63;;
43086;SDS011;28708;52.224;6.924;2024-03-23T06:12:37;14.43;;;7.13;;
43086;SDS011;28708;52.224;6.924;2024-03-23T06:15:03;22.37;;;8.13;;
43086;SDS011;28708;52.224;6.924;2024-03-23T06:17:28;18.70;;;7.90;;
43086;SDS011;28708;52.224;6.924;2024-03-23T06:19:54;17.23;;;7.73;;
43086;SDS011;28708;52.224;6.924;2024-03-23T06:22:20;19.63;;;7.47;;
43086;SDS011;28708;52.224;6.924;2024-03-23T06:24:45;17.37;;;7.57;;
43086;SDS011;28708;52.224;6.924;2024-03-23T06:27:11;16.73;;;7.47;;
43086;SDS011;28708;52.224;6.924;2024-03-23T06:29:37;18.43;;;6.93;;
43086;SDS011;28708;52.224;6.924;2024-03-23T06:32:02;18.37;;;7.27;;
43086;SDS011;28708;52.224;6.924;2024-03-23T06:34:28;15.57;;;7.47;;
43086;SDS011;28708;52.224;6.924;2024-03-23T06:36:54;12.67;;;6.03;;
43086;SDS011;28708;52.224;6.924;2024-03-23T06:39:20;20.00;;;7.77;;
43086;SDS011;28708;52.224;6.924;2024-03-23T06:41:51;20.53;;;7.77;;
43086;SDS011;28708;52.224;6.924;2024-03-23T06:44:20;20.63;;;7.73;;
43086;SDS011;28708;52.224;6.924;2024-03-23T06:46:46;16.83;;;7.30;;
43086;SDS011;28708;52.224;6.924;2024-03-23T06:49:13;19.77;;;7.30;;
43086;SDS011;28708;52.224;6.924;2024-03-23T06:51:39;18.33;;;6.90;;
43086;SDS011;28708;52.224;6.924;2024-03-23T06:54:05;14.90;;;6.43;;
43086;SDS011;28708;52.224;6.924;2024-03-23T06:56:30;13.93;;;5.13;;
43086;SDS011;28708;52.224;6.924;2024-03-23T06:58:56;13.77;;;5.43;;
43086;SDS011;28708;52.224;6.924;2024-03-23T07:01:22;11.33;;;5.17;;
43086;SDS011;28708;52.224;6.924;2024-03-23T07:03:48;13.33;;;5.23;;
43086;SDS011;28708;52.224;6.924;2024-03-23T07:06:14;10.17;;;4.30;;
43086;SDS011;28708;52.224;6.924;2024-03-23T07:08:39;12.97;;;4.60;;
43086;SDS011;28708;52.224;6.924;2024-03-23T07:11:05;13.70;;;3.30;;
43086;SDS011;28708;52.224;6.924;2024-03-23T07:13:31;11.53;;;4.30;;
43086;SDS011;28708;52.224;6.924;2024-03-23T07:15:56;9.20;;;4.30;;
43086;SDS011;28708;52.224;6.924;2024-03-23T07:18:23;12.97;;;4.00;;
43086;SDS011;28708;52.224;6.924;2024-03-23T07:20:53;8.90;;;4.27;;
43086;SDS011;28708;52.224;6.924;2024-03-23T07:25:45;12.87;;;4.20;;
43086;SDS011;28708;52.224;6.924;2024-03-23T07:28:10;8.23;;;3.87;;
43086;SDS011;28708;52.224;6.924;2024-03-23T07:30:36;7.67;;;3.97;;
43086;SDS011;28708;52.224;6.924;2024-03-23T07:33:02;9.50;;;3.37;;
43086;SDS011;28708;52.224;6.924;2024-03-23T07:35:31;8.35;;;3.35;;
43086;SDS011;28708;52.224;6.924;2024-03-23T07:37:57;10.93;;;3.60;;
43086;SDS011;28708;52.224;6.924;2024-03-23T07:40:25;9.53;;;3.60;;
43086;SDS011;28708;52.224;6.924;2024-03-23T07:42:51;7.57;;;2.90;;
43086;SDS011;28708;52.224;6.924;2024-03-23T07:45:16;10.30;;;3.87;;
43086;SDS011;28708;52.224;6.924;2024-03-23T07:47:45;8.07;;;2.70;;
43086;SDS011;28708;52.224;6.924;2024-03-23T07:50:11;6.67;;;3.17;;
43086;SDS011;28708;52.224;6.924;2024-03-23T07:52:36;5.97;;;2.13;;
43086;SDS011;28708;52.224;6.924;2024-03-23T07:55:05;8.47;;;1.90;;
43086;SDS011;28708;52.224;6.924;2024-03-23T07:57:31;10.83;;;2.63;;
43086;SDS011;28708;52.224;6.924;2024-03-23T07:59:56;5.43;;;2.30;;
43086;SDS011;28708;52.224;6.924;2024-03-23T08:02:23;4.70;;;1.90;;
43086;SDS011;28708;52.224;6.924;2024-03-23T08:04:49;5.73;;;2.30;;
43086;SDS011;28708;52.224;6.924;2024-03-23T08:07:15;10.50;;;2.20;;
43086;SDS011;28708;52.224;6.924;2024-03-23T08:09:41;6.33;;;2.10;;
43086;SDS011;28708;52.224;6.924;2024-03-23T08:12:06;8.13;;;2.50;;
43086;SDS011;28708;52.224;6.924;2024-03-23T08:14:32;7.73;;;2.30;;
43086;SDS011;28708;52.224;6.924;2024-03-23T08:16:58;7.03;;;2.27;;
43086;SDS011;28708;52.224;6.924;2024-03-23T08:19:23;3.87;;;1.93;;
43086;SDS011;28708;52.224;6.924;2024-03-23T08:21:49;5.70;;;2.20;;
43086;SDS011;28708;52.224;6.924;2024-03-23T08:24:16;7.13;;;2.03;;
43086;SDS011;28708;52.224;6.924;2024-03-23T08:26:41;3.90;;;1.80;;
43086;SDS011;28708;52.224;6.924;2024-03-23T08:29:07;3.00;;;1.60;;
43086;SDS011;28708;52.224;6.924;2024-03-23T08:31:33;6.73;;;1.70;;
43086;SDS011;28708;52.224;6.924;2024-03-23T08:33:58;11.30;;;2.20;;
43086;SDS011;28708;52.224;6.924;2024-03-23T08:36:24;3.20;;;1.60;;
43086;SDS011;28708;52.224;6.924;2024-03-23T08:38:49;4.63;;;2.37;;
43086;SDS011;28708;52.224;6.924;2024-03-23T08:41:18;4.37;;;1.87;;
43086;SDS011;28708;52.224;6.924;2024-03-23T08:43:44;5.07;;;1.70;;
43086;SDS011;28708;52.224;6.924;2024-03-23T08:46:10;8.00;;;1.90;;
43086;SDS011;28708;52.224;6.924;2024-03-23T08:48:41;3.63;;;1.20;;
43086;SDS011;28708;52.224;6.924;2024-03-23T08:51:09;4.83;;;1.80;;
43086;SDS011;28708;52.224;6.924;2024-03-23T08:53:35;5.97;;;2.10;;
43086;SDS011;28708;52.224;6.924;2024-03-23T08:56:02;3.50;;;1.57;;
43086;SDS011;28708;52.224;6.924;2024-03-23T08:58:30;4.77;;;1.37;;
43086;SDS011;28708;52.224;6.924;2024-03-23T09:00:57;3.20;;;1.30;;
43086;SDS011;28708;52.224;6.924;2024-03-23T09:03:32;5.20;;;1.43;;
43086;SDS011;28708;52.224;6.924;2024-03-23T09:05:59;5.03;;;1.63;;
43086;SDS011;28708;52.224;6.924;2024-03-23T09:08:25;6.97;;;1.57;;
43086;SDS011;28708;52.224;6.924;2024-03-23T09:10:51;8.70;;;1.60;;
43086;SDS011;28708;52.224;6.924;2024-03-23T09:13:17;6.67;;;1.67;;
43086;SDS011;28708;52.224;6.924;2024-03-23T09:15:46;6.20;;;1.50;;
43086;SDS011;28708;52.224;6.924;2024-03-23T09:18:16;3.67;;;1.77;;
43086;SDS011;28708;52.224;6.924;2024-03-23T09:20:42;2.03;;;1.27;;
43086;SDS011;28708;52.224;6.924;2024-03-23T09:23:08;4.17;;;1.90;;
43086;SDS011;28708;52.224;6.924;2024-03-23T09:25:39;3.70;;;1.23;;
43086;SDS011;28708;52.224;6.924;2024-03-23T09:28:06;2.40;;;1.27;;
43086;SDS011;28708;52.224;6.924;2024-03-23T09:30:33;4.40;;;1.43;;
43086;SDS011;28708;52.224;6.924;2024-03-23T09:32:59;8.33;;;1.40;;
43086;SDS011;28708;52.224;6.924;2024-03-23T09:35:26;5.87;;;1.60;;
43086;SDS011;28708;52.224;6.924;2024-03-23T09:37:51;4.23;;;0.97;;
43086;SDS011;28708;52.224;6.924;2024-03-23T09:40:17;2.10;;;1.23;;
43086;SDS011;28708;52.224;6.924;2024-03-23T09:42:43;2.37;;;1.30;;
43086;SDS011;28708;52.224;6.924;2024-03-23T09:45:21;1.43;;;0.87;;
43086;SDS011;28708;52.224;6.924;2024-03-23T09:47:52;2.47;;;1.40;;
43086;SDS011;28708;52.224;6.924;2024-03-23T09:50:18;6.30;;;1.40;;
43086;SDS011;28708;52.224;6.924;2024-03-23T09:52:45;3.97;;;1.10;;
43086;SDS011;28708;52.224;6.924;2024-03-23T09:55:11;4.07;;;0.97;;
43086;SDS011;28708;52.224;6.924;2024-03-23T09:57:37;2.83;;;0.93;;
43086;SDS011;28708;52.224;6.924;2024-03-23T10:00:03;3.17;;;1.47;;
43086;SDS011;28708;52.224;6.924;2024-03-23T10:02:32;4.65;;;1.05;;
43086;SDS011;28708;52.224;6.924;2024-03-23T10:04:58;2.70;;;1.20;;
43086;SDS011;28708;52.224;6.924;2024-03-23T10:07:25;4.70;;;0.93;;
43086;SDS011;28708;52.224;6.924;2024-03-23T10:09:53;2.30;;;0.83;;
43086;SDS011;28708;52.224;6.924;2024-03-23T10:12:19;5.53;;;1.07;;
43086;SDS011;28708;52.224;6.924;2024-03-23T10:14:44;2.40;;;0.67;;
43086;SDS011;28708;52.224;6.924;2024-03-23T10:19:48;3.27;;;0.63;;
43086;SDS011;28708;52.224;6.924;2024-03-23T10:22:19;3.03;;;0.80;;
43086;SDS011;28708;52.224;6.924;2024-03-23T10:24:45;6.67;;;1.00;;
43086;SDS011;28708;52.224;6.924;2024-03-23T10:27:15;4.93;;;0.90;;
43086;SDS011;28708;52.224;6.924;2024-03-23T10:29:43;4.07;;;1.10;;
43086;SDS011;28708;52.224;6.924;2024-03-23T10:32:13;3.33;;;0.80;;
43086;SDS011;28708;52.224;6.924;2024-03-23T10:34:40;2.17;;;1.07;;
43086;SDS011;28708;52.224;6.924;2024-03-23T10:37:06;3.57;;;0.90;;
43086;SDS011;28708;52.224;6.924;2024-03-23T10:39:33;1.73;;;0.60;;
43086;SDS011;28708;52.224;6.924;2024-03-23T10:42:03;3.40;;;0.70;;
43086;SDS011;28708;52.224;6.924;2024-03-23T10:44:33;2.63;;;0.93;;
43086;SDS011;28708;52.224;6.924;2024-03-23T10:46:59;1.80;;;0.67;;
43086;SDS011;28708;52.224;6.924;2024-03-23T10:49:29;2.53;;;0.60;;
43086;SDS011;28708;52.224;6.924;2024-03-23T10:51:59;3.67;;;0.50;;
43086;SDS011;28708;52.224;6.924;2024-03-23T10:54:26;4.97;;;0.83;;
43086;SDS011;28708;52.224;6.924;2024-03-23T10:57:02;3.17;;;0.70;;
43086;SDS011;28708;52.224;6.924;2024-03-23T10:59:31;1.58;;;0.73;;
43086;SDS011;28708;52.224;6.924;2024-03-23T11:01:59;2.53;;;0.50;;
43086;SDS011;28708;52.224;6.924;2024-03-23T11:07:02;1.17;;;0.57;;
43086;SDS011;28708;52.224;6.924;2024-03-23T11:14:48;1.27;;;0.50;;
43086;SDS011;28708;52.224;6.924;2024-03-23T11:17:22;1.27;;;0.37;;
43086;SDS011;28708;52.224;6.924;2024-03-23T11:19:59;1.53;;;0.43;;
43086;SDS011;28708;52.224;6.924;2024-03-23T11:22:45;2.70;;;0.60;;
43086;SDS011;28708;52.224;6.924;2024-03-23T11:25:12;3.97;;;0.50;;
43086;SDS011;28708;52.224;6.924;2024-03-23T11:27:42;3.55;;;0.40;;
43086;SDS011;28708;52.224;6.924;2024-03-23T11:30:11;3.50;;;0.40;;
43086;SDS011;28708;52.224;6.924;2024-03-23T11:32:37;1.87;;;0.50;;
43086;SDS011;28708;52.224;6.924;2024-03-23T11:35:04;1.63;;;0.90;;
43086;SDS011;28708;52.224;6.924;2024-03-23T11:37:30;1.33;;;0.40;;
43086;SDS011;28708;52.224;6.924;2024-03-23T11:39:55;1.70;;;0.30;;
43086;SDS011;28708;52.224;6.924;2024-03-23T11:42:21;1.47;;;0.50;;
43086;SDS011;28708;52.224;6.924;2024-03-23T11:44:47;1.80;;;0.50;;
43086;SDS011;28708;52.224;6.924;2024-03-23T11:47:12;1.07;;;0.30;;
43086;SDS011;28708;52.224;6.924;2024-03-23T11:49:38;1.23;;;0.40;;
43086;SDS011;28708;52.224;6.924;2024-03-23T11:52:06;1.70;;;0.40;;
43086;SDS011;28708;52.224;6.924;2024-03-23T11:54:32;1.80;;;0.60;;
43086;SDS011;28708;52.224;6.924;2024-03-23T11:56:59;0.70;;;0.33;;
43086;SDS011;28708;52.224;6.924;2024-03-23T11:59:34;0.85;;;0.35;;
43086;SDS011;28708;52.224;6.924;2024-03-23T12:02:08;2.10;;;0.30;;
43086;SDS011;28708;52.224;6.924;2024-03-23T12:04:39;0.67;;;0.47;;
43086;SDS011;28708;52.224;6.924;2024-03-23T12:07:08;4.43;;;1.13;;
43086;SDS011;28708;52.224;6.924;2024-03-23T12:09:35;3.10;;;0.70;;
43086;SDS011;28708;52.224;6.924;2024-03-23T12:14:33;0.97;;;0.37;;
43086;SDS011;28708;52.224;6.924;2024-03-23T12:17:09;0.50;;;0.30;;
43086;SDS011;28708;52.224;6.924;2024-03-23T12:19:39;2.15;;;0.43;;
43086;SDS011;28708;52.224;6.924;2024-03-23T12:22:06;3.43;;;0.97;;
43086;SDS011;28708;52.224;6.924;2024-03-23T12:24:33;0.30;;;0.20;;
43086;SDS011;28708;52.224;6.924;2024-03-23T12:27:03;0.90;;;0.50;;
43086;SDS011;28708;52.224;6.924;2024-03-23T12:29:30;1.07;;;0.50;;
43086;SDS011;28708;52.224;6.924;2024-03-23T12:31:58;3.77;;;0.73;;
43086;SDS011;28708;52.224;6.924;2024-03-23T12:34:25;2.88;;;0.80;;
43086;SDS011;28708;52.224;6.924;2024-03-23T12:36:51;1.77;;;0.70;;
43086;SDS011;28708;52.224;6.924;2024-03-23T12:39:17;1.83;;;0.87;;
43086;SDS011;28708;52.224;6.924;2024-03-23T12:41:45;1.60;;;0.50;;
43086;SDS011;28708;52.224;6.924;2024-03-23T12:44:14;2.00;;;0.70;;
43086;SDS011;28708;52.224;6.924;2024-03-23T12:46:40;2.30;;;0.60;;
43086;SDS011;28708;52.224;6.924;2024-03-23T12:49:07;1.60;;;0.53;;
43086;SDS011;28708;52.224;6.924;2024-03-23T12:51:33;1.50;;;0.57;;
43086;SDS011;28708;52.224;6.924;2024-03-23T12:53:59;2.00;;;0.50;;
43086;SDS011;28708;52.224;6.924;2024-03-23T12:56:24;3.10;;;0.60;;
43086;SDS011;28708;52.224;6.924;2024-03-23T12:58:50;1.57;;;0.60;;
43086;SDS011;28708;52.224;6.924;2024-03-23T13:01:20;1.95;;;0.68;;
43086;SDS011;28708;52.224;6.924;2024-03-23T13:03:46;1.07;;;0.53;;
43086;SDS011;28708;52.224;6.924;2024-03-23T13:06:12;5.60;;;1.70;;
43086;SDS011;28708;52.224;6.924;2024-03-23T13:08:38;10.93;;;7.30;;
43086;SDS011;28708;52.224;6.924;2024-03-23T13:11:05;2.73;;;0.70;;
43086;SDS011;28708;52.224;6.924;2024-03-23T13:13:33;1.27;;;0.40;;
43086;SDS011;28708;52.224;6.924;2024-03-23T13:15:59;3.73;;;0.70;;
43086;SDS011;28708;52.224;6.924;2024-03-23T13:18:25;1.50;;;0.50;;
43086;SDS011;28708;52.224;6.924;2024-03-23T13:20:51;3.87;;;0.60;;
43086;SDS011;28708;52.224;6.924;2024-03-23T13:23:17;2.17;;;0.80;;
43086;SDS011;28708;52.224;6.924;2024-03-23T13:25:49;1.07;;;0.50;;
43086;SDS011;28708;52.224;6.924;2024-03-23T13:28:15;0.90;;;0.40;;
43086;SDS011;28708;52.224;6.924;2024-03-23T13:30:52;0.33;;;0.30;;
43086;SDS011;28708;52.224;6.924;2024-03-23T13:33:18;2.33;;;0.37;;
43086;SDS011;28708;52.224;6.924;2024-03-23T13:35:54;3.63;;;0.60;;
43086;SDS011;28708;52.224;6.924;2024-03-23T13:38:21;1.60;;;0.37;;
43086;SDS011;28708;52.224;6.924;2024-03-23T13:40:53;4.23;;;0.83;;
43086;SDS011;28708;52.224;6.924;2024-03-23T13:43:19;2.33;;;1.17;;
43086;SDS011;28708;52.224;6.924;2024-03-23T13:45:48;2.10;;;1.03;;
43086;SDS011;28708;52.224;6.924;2024-03-23T13:48:16;5.30;;;0.80;;
43086;SDS011;28708;52.224;6.924;2024-03-23T13:50:43;1.30;;;0.63;;
43086;SDS011;28708;52.224;6.924;2024-03-23T13:53:08;1.07;;;0.40;;
43086;SDS011;28708;52.224;6.924;2024-03-23T13:55:34;1.77;;;0.67;;
43086;SDS011;28708;52.224;6.924;2024-03-23T13:58:00;3.53;;;0.57;;
43086;SDS011;28708;52.224;6.924;2024-03-23T14:00:26;2.83;;;0.90;;
43086;SDS011;28708;52.224;6.924;2024-03-23T14:02:52;2.33;;;0.40;;
43086;SDS011;28708;52.224;6.924;2024-03-23T14:05:18;0.87;;;0.57;;
43086;SDS011;28708;52.224;6.924;2024-03-23T14:07:43;4.23;;;0.80;;
43086;SDS011;28708;52.224;6.924;2024-03-23T14:10:10;3.27;;;1.03;;
43086;SDS011;28708;52.224;6.924;2024-03-23T14:12:36;3.53;;;0.67;;
43086;SDS011;28708;52.224;6.924;2024-03-23T14:15:06;0.70;;;0.27;;
43086;SDS011;28708;52.224;6.924;2024-03-23T14:17:32;2.33;;;0.82;;
43086;SDS011;28708;52.224;6.924;2024-03-23T14:19:58;0.73;;;0.40;;
43086;SDS011;28708;52.224;6.924;2024-03-23T14:22:26;4.33;;;0.63;;
43086;SDS011;28708;52.224;6.924;2024-03-23T14:24:53;2.87;;;0.77;;
43086;SDS011;28708;52.224;6.924;2024-03-23T14:27:19;1.73;;;0.67;;
43086;SDS011;28708;52.224;6.924;2024-03-23T14:29:48;4.30;;;1.00;;
43086;SDS011;28708;52.224;6.924;2024-03-23T14:32:14;1.63;;;0.70;;
43086;SDS011;28708;52.224;6.924;2024-03-23T14:34:40;3.00;;;0.60;;
43086;SDS011;28708;52.224;6.924;2024-03-23T14:37:06;1.63;;;0.70;;
43086;SDS011;28708;52.224;6.924;2024-03-23T14:39:32;5.30;;;0.93;;
43086;SDS011;28708;52.224;6.924;2024-03-23T14:42:00;3.47;;;0.83;;
43086;SDS011;28708;52.224;6.924;2024-03-23T14:44:26;2.20;;;0.93;;
43086;SDS011;28708;52.224;6.924;2024-03-23T14:46:55;3.40;;;0.90;;
43086;SDS011;28708;52.224;6.924;2024-03-23T14:49:21;1.43;;;0.60;;
43086;SDS011;28708;52.224;6.924;2024-03-23T14:51:46;5.60;;;0.50;;
43086;SDS011;28708;52.224;6.924;2024-03-23T14:54:15;1.73;;;0.70;;
43086;SDS011;28708;52.224;6.924;2024-03-23T14:56:41;3.57;;;0.93;;
43086;SDS011;28708;52.224;6.924;2024-03-23T14:59:06;2.30;;;0.70;;
43086;SDS011;28708;52.224;6.924;2024-03-23T15:01:35;2.13;;;0.57;;
43086;SDS011;28708;52.224;6.924;2024-03-23T15:04:00;2.23;;;0.63;;
43086;SDS011;28708;52.224;6.924;2024-03-23T15:06:26;2.90;;;0.70;;
43086;SDS011;28708;52.224;6.924;2024-03-23T15:08:52;3.00;;;0.70;;
43086;SDS011;28708;52.224;6.924;2024-03-23T15:11:19;2.73;;;0.57;;
43086;SDS011;28708;52.224;6.924;2024-03-23T15:13:45;2.43;;;1.00;;
43086;SDS011;28708;52.224;6.924;2024-03-23T15:16:16;5.07;;;0.63;;
43086;SDS011;28708;52.224;6.924;2024-03-23T15:18:45;3.37;;;0.73;;
43086;SDS011;28708;52.224;6.924;2024-03-23T15:21:13;0.97;;;0.63;;
43086;SDS011;28708;52.224;6.924;2024-03-23T15:23:45;1.90;;;0.73;;
43086;SDS011;28708;52.224;6.924;2024-03-23T15:26:11;2.47;;;0.60;;
43086;SDS011;28708;52.224;6.924;2024-03-23T15:28:36;2.33;;;0.50;;
43086;SDS011;28708;52.224;6.924;2024-03-23T15:31:23;1.90;;;0.93;;
43086;SDS011;28708;52.224;6.924;2024-03-23T15:33:50;5.97;;;0.90;;
43086;SDS011;28708;52.224;6.924;2024-03-23T15:36:16;2.23;;;0.83;;
43086;SDS011;28708;52.224;6.924;2024-03-23T15:38:42;3.30;;;0.80;;
43086;SDS011;28708;52.224;6.924;2024-03-23T15:41:08;1.50;;;0.67;;
43086;SDS011;28708;52.224;6.924;2024-03-23T15:43:34;1.60;;;0.77;;
43086;SDS011;28708;52.224;6.924;2024-03-23T15:46:03;2.60;;;0.57;;
43086;SDS011;28708;52.224;6.924;2024-03-23T15:48:31;0.60;;;0.40;;